Time;durP1;ratioP1;P1;durP2;ratioP2;P2;SDS_P1;SDS_P2;PMS_P1;PMS_P2;Temp;Humidity;BMP_temperature;BMP_pressure;BME280_temperature;BME280_humidity;BME280_pressure;Samples;Min_cycle;Max_cycle;Signal;HPM_P1;HPM_P2
2023/05/20 00:00:11;;;;;;;1.13;0.50;;;;;;;;;;5032486;28;20890;-83
2023/05/20 00:02:37;;;;;;;0.70;0.20;;;;;;;;;;5033056;28;20804;-81
2023/05/20 00:05:03;;;;;;;0.77;0.20;;;;;;;;;;5036138;28;20445;-80
2023/05/20 00:07:29;;;;;;;1.07;0.40;;;;;;;;;;5036016;28;20421;-81
2023/05/20 00:09:54;;;;;;;0.40;0.20;;;;;;;;;;5035937;28;20474;-80
2023/05/20 00:12:20;;;;;;;1.27;0.20;;;;;;;;;;5035557;28;20422;-79
2023/05/20 00:14:46;;;;;;;0.70;0.10;;;;;;;;;;5035839;28;20517;-80
2023/05/20 00:17:12;;;;;;;1.00;0.30;;;;;;;;;;5035899;28;20428;-80
2023/05/20 00:19:38;;;;;;;0.73;0.20;;;;;;;;;;5035601;28;20457;-81
2023/05/20 00:22:04;;;;;;;0.67;0.23;;;;;;;;;;5043843;28;20624;-80
2023/05/20 00:24:30;;;;;;;0.90;0.40;;;;;;;;;;5055550;28;20885;-81
2023/05/20 00:26:56;;;;;;;0.50;0.20;;;;;;;;;;5055179;28;20445;-80
2023/05/20 00:29:22;;;;;;;2.17;0.30;;;;;;;;;;5055470;28;20427;-79
2023/05/20 00:31:48;;;;;;;0.70;0.30;;;;;;;;;;5037588;28;20173;-80
2023/05/20 00:34:14;;;;;;;0.63;0.30;;;;;;;;;;5055560;28;20943;-80
2023/05/20 00:36:41;;;;;;;0.70;0.30;;;;;;;;;;5034581;28;20429;-80
2023/05/20 00:39:07;;;;;;;0.73;0.30;;;;;;;;;;5035337;28;20426;-80
2023/05/20 00:41:34;;;;;;;0.50;0.20;;;;;;;;;;5034997;28;20413;-82
2023/05/20 00:44:00;;;;;;;0.60;0.20;;;;;;;;;;5035230;28;20484;-79
2023/05/20 00:46:27;;;;;;;1.80;0.40;;;;;;;;;;5035187;28;20402;-81
2023/05/20 00:48:53;;;;;;;2.50;0.20;;;;;;;;;;5035224;28;20467;-82
2023/05/20 00:51:19;;;;;;;0.90;0.30;;;;;;;;;;5035210;28;20402;-81
2023/05/20 00:53:45;;;;;;;0.87;0.30;;;;;;;;;;5035235;28;20458;-82
2023/05/20 00:56:11;;;;;;;0.63;0.20;;;;;;;;;;5034917;28;20901;-81
2023/05/20 00:58:38;;;;;;;1.33;0.30;;;;;;;;;;5028454;28;20433;-81
2023/05/20 01:01:05;;;;;;;0.60;0.20;;;;;;;;;;5034994;28;20492;-79
2023/05/20 01:03:31;;;;;;;1.00;0.20;;;;;;;;;;5017033;28;20484;-83
2023/05/20 01:05:57;;;;;;;1.07;0.20;;;;;;;;;;5034994;28;20412;-82
2023/05/20 01:08:24;;;;;;;1.13;0.40;;;;;;;;;;5034868;28;21256;-80
2023/05/20 01:11:03;;;;;;;0.97;0.53;;;;;;;;;;5034824;28;20781;-80
2023/05/20 01:13:42;;;;;;;0.43;0.30;;;;;;;;;;5034484;28;20428;-81
2023/05/20 01:16:10;;;;;;;0.67;0.40;;;;;;;;;;5039900;28;20445;-81
2023/05/20 01:18:36;;;;;;;1.30;0.27;;;;;;;;;;5054322;28;20467;-81
2023/05/20 01:21:03;;;;;;;0.43;0.20;;;;;;;;;;5054696;28;20421;-82
2023/05/20 01:23:32;;;;;;;0.60;0.20;;;;;;;;;;5054568;28;20992;-79
2023/05/20 01:25:59;;;;;;;0.70;0.20;;;;;;;;;;5054233;28;20417;-79
2023/05/20 01:28:25;;;;;;;1.30;0.30;;;;;;;;;;5054489;28;20566;-80
2023/05/20 01:30:55;;;;;;;1.30;0.40;;;;;;;;;;5054258;28;20420;-81
2023/05/20 01:33:22;;;;;;;0.63;0.20;;;;;;;;;;5054460;28;20505;-81
2023/05/20 01:35:48;;;;;;;0.50;0.20;;;;;;;;;;5054320;28;20413;-81
2023/05/20 01:38:15;;;;;;;0.70;0.20;;;;;;;;;;5054379;28;20440;-81
2023/05/20 01:40:41;;;;;;;0.70;0.30;;;;;;;;;;5054164;28;20447;-78
2023/05/20 01:43:08;;;;;;;0.60;0.30;;;;;;;;;;5053698;28;20459;-79
2023/05/20 01:45:34;;;;;;;0.50;0.20;;;;;;;;;;5054100;28;20458;-81
2023/05/20 01:48:00;;;;;;;0.30;0.20;;;;;;;;;;5054133;28;20520;-80
2023/05/20 01:50:26;;;;;;;0.83;0.20;;;;;;;;;;5054107;28;20428;-81
2023/05/20 01:52:52;;;;;;;1.13;0.30;;;;;;;;;;5053953;28;20416;-79
2023/05/20 01:55:18;;;;;;;1.50;0.20;;;;;;;;;;5053916;28;20906;-80
2023/05/20 01:57:44;;;;;;;0.63;0.20;;;;;;;;;;5053419;28;20903;-80
2023/05/20 02:00:10;;;;;;;1.17;0.20;;;;;;;;;;5053963;28;20446;-80
2023/05/20 02:02:36;;;;;;;0.80;0.37;;;;;;;;;;5053653;28;20462;-80
2023/05/20 02:05:02;;;;;;;1.13;0.30;;;;;;;;;;5053840;28;20427;-80
2023/05/20 02:07:28;;;;;;;0.50;0.20;;;;;;;;;;5053754;28;20409;-80
2023/05/20 02:09:54;;;;;;;1.27;0.20;;;;;;;;;;5053675;28;20417;-81
2023/05/20 02:12:20;;;;;;;0.80;0.20;;;;;;;;;;5053317;28;20403;-79
2023/05/20 02:14:47;;;;;;;0.30;0.10;;;;;;;;;;5053524;28;20812;-82
2023/05/20 02:17:16;;;;;;;0.87;0.20;;;;;;;;;;5035622;28;20457;-83
2023/05/20 02:19:42;;;;;;;0.40;0.20;;;;;;;;;;5053296;28;20459;-83
2023/05/20 02:22:08;;;;;;;0.70;0.20;;;;;;;;;;5053314;28;20418;-81
2023/05/20 02:24:34;;;;;;;0.80;0.40;;;;;;;;;;5053344;28;20472;-83
2023/05/20 02:27:02;;;;;;;1.10;0.20;;;;;;;;;;5052722;28;20401;-79
2023/05/20 02:29:27;;;;;;;3.03;0.50;;;;;;;;;;5053275;28;20413;-83
2023/05/20 02:31:53;;;;;;;0.97;0.47;;;;;;;;;;5053311;28;20778;-83
2023/05/20 02:34:20;;;;;;;0.93;0.30;;;;;;;;;;5053362;28;20170;-83
2023/05/20 02:36:46;;;;;;;0.87;0.20;;;;;;;;;;5053039;28;20404;-82
2023/05/20 02:39:12;;;;;;;1.80;0.40;;;;;;;;;;5053065;28;20439;-83
2023/05/20 02:41:38;;;;;;;0.53;0.20;;;;;;;;;;5052802;28;20445;-80
2023/05/20 02:44:04;;;;;;;0.70;0.20;;;;;;;;;;5053034;28;20573;-82
2023/05/20 02:46:30;;;;;;;0.63;0.27;;;;;;;;;;5052967;28;20499;-79
2023/05/20 02:48:56;;;;;;;0.73;0.50;;;;;;;;;;5052821;28;20434;-80
2023/05/20 02:51:23;;;;;;;0.93;0.20;;;;;;;;;;5052908;28;20440;-83
2023/05/20 02:53:48;;;;;;;0.70;0.30;;;;;;;;;;5053333;28;20413;-84
2023/05/20 02:56:15;;;;;;;1.70;0.20;;;;;;;;;;5053131;28;20500;-84
2023/05/20 02:58:41;;;;;;;1.17;0.20;;;;;;;;;;5035034;28;20459;-79
2023/05/20 03:01:07;;;;;;;0.60;0.20;;;;;;;;;;5053208;28;20412;-81
2023/05/20 03:03:33;;;;;;;0.57;0.20;;;;;;;;;;5052758;28;20576;-80
2023/05/20 03:05:59;;;;;;;1.13;0.20;;;;;;;;;;5052970;28;20407;-81
2023/05/20 03:08:25;;;;;;;2.17;0.40;;;;;;;;;;5053187;28;20464;-81
2023/05/20 03:10:51;;;;;;;0.93;0.20;;;;;;;;;;5052642;28;20405;-80
2023/05/20 03:13:17;;;;;;;1.47;0.30;;;;;;;;;;5053061;28;20423;-78
2023/05/20 03:15:44;;;;;;;1.73;0.30;;;;;;;;;;5052720;28;20410;-79
2023/05/20 03:18:11;;;;;;;0.93;0.30;;;;;;;;;;5052771;28;20835;-79
2023/05/20 03:20:37;;;;;;;1.10;0.30;;;;;;;;;;5052529;28;20475;-81
2023/05/20 03:23:03;;;;;;;1.90;0.30;;;;;;;;;;5052719;28;20459;-79
2023/05/20 03:25:29;;;;;;;1.03;0.50;;;;;;;;;;5035242;28;20431;-80
2023/05/20 03:27:57;;;;;;;1.67;0.20;;;;;;;;;;5052574;28;20970;-81
2023/05/20 03:30:23;;;;;;;3.27;0.47;;;;;;;;;;5052815;28;20415;-80
2023/05/20 03:32:49;;;;;;;6.03;0.60;;;;;;;;;;5052589;28;20996;-81
2023/05/20 03:35:15;;;;;;;1.17;0.40;;;;;;;;;;5052401;28;20866;-78
2023/05/20 03:37:41;;;;;;;0.97;0.20;;;;;;;;;;5053909;28;20422;-80
2023/05/20 03:40:09;;;;;;;1.90;0.27;;;;;;;;;;5056804;28;20415;-81
2023/05/20 03:42:35;;;;;;;1.58;0.30;;;;;;;;;;5056198;28;20416;-78
2023/05/20 03:45:01;;;;;;;1.00;0.30;;;;;;;;;;5056645;28;20180;-80
2023/05/20 03:47:27;;;;;;;1.60;0.30;;;;;;;;;;5056107;28;20510;-79
2023/05/20 03:49:53;;;;;;;1.10;0.30;;;;;;;;;;5056580;28;20186;-81
2023/05/20 03:52:19;;;;;;;1.00;0.30;;;;;;;;;;5056869;28;20450;-81
2023/05/20 03:54:45;;;;;;;0.70;0.23;;;;;;;;;;5056504;28;20414;-81
2023/05/20 03:57:11;;;;;;;0.90;0.30;;;;;;;;;;5056389;28;20984;-80
2023/05/20 03:59:37;;;;;;;0.70;0.20;;;;;;;;;;5056611;28;20465;-82
2023/05/20 04:02:03;;;;;;;1.47;0.23;;;;;;;;;;5056894;28;20411;-81
2023/05/20 04:04:29;;;;;;;2.67;0.20;;;;;;;;;;5038604;28;20475;-80
2023/05/20 04:06:55;;;;;;;1.60;0.40;;;;;;;;;;5038140;28;20419;-81
2023/05/20 04:09:22;;;;;;;2.30;0.20;;;;;;;;;;5056033;28;20948;-79
2023/05/20 04:11:48;;;;;;;0.90;0.20;;;;;;;;;;5038239;28;20424;-81
2023/05/20 04:14:14;;;;;;;1.47;0.20;;;;;;;;;;5056282;28;20440;-80
2023/05/20 04:16:40;;;;;;;0.70;0.30;;;;;;;;;;5056340;28;20415;-86
2023/05/20 04:19:06;;;;;;;6.30;0.33;;;;;;;;;;5056153;28;20467;-79
2023/05/20 04:21:32;;;;;;;0.50;0.20;;;;;;;;;;5056147;28;20410;-83
2023/05/20 04:23:58;;;;;;;2.40;0.47;;;;;;;;;;5055989;28;20565;-78
2023/05/20 04:26:24;;;;;;;3.33;0.40;;;;;;;;;;5055814;28;20189;-78
2023/05/20 04:28:50;;;;;;;1.03;0.20;;;;;;;;;;5056129;28;20501;-78
2023/05/20 04:31:16;;;;;;;0.63;0.30;;;;;;;;;;5038147;28;20414;-79
2023/05/20 04:33:43;;;;;;;0.80;0.20;;;;;;;;;;5055998;28;20512;-78
2023/05/20 04:36:10;;;;;;;0.80;0.20;;;;;;;;;;5056010;28;20434;-79
2023/05/20 04:38:37;;;;;;;0.40;0.20;;;;;;;;;;5055986;28;20448;-79
2023/05/20 04:41:03;;;;;;;1.27;0.30;;;;;;;;;;5055504;28;20487;-78
2023/05/20 04:43:30;;;;;;;2.77;0.30;;;;;;;;;;5055683;28;20463;-78
2023/05/20 04:45:57;;;;;;;0.50;0.20;;;;;;;;;;5055831;28;20411;-78
2023/05/20 04:48:23;;;;;;;3.60;1.07;;;;;;;;;;5055545;28;20419;-78
2023/05/20 04:50:50;;;;;;;0.40;0.20;;;;;;;;;;5055702;28;20960;-79
2023/05/20 04:53:16;;;;;;;0.70;0.40;;;;;;;;;;5055756;28;20408;-79
2023/05/20 04:55:43;;;;;;;0.60;0.20;;;;;;;;;;5055186;28;20435;-76
2023/05/20 04:58:14;;;;;;;2.77;0.33;;;;;;;;;;5055598;28;20417;-76
2023/05/20 05:00:41;;;;;;;0.63;0.20;;;;;;;;;;5055545;28;20414;-76
2023/05/20 05:03:07;;;;;;;1.10;0.20;;;;;;;;;;5051955;28;20463;-83
2023/05/20 05:05:34;;;;;;;2.23;0.40;;;;;;;;;;5036259;28;20404;-83
2023/05/20 05:08:00;;;;;;;1.00;0.20;;;;;;;;;;5035489;28;20445;-81
2023/05/20 05:10:26;;;;;;;0.97;0.20;;;;;;;;;;5035088;28;20411;-82
2023/05/20 05:12:52;;;;;;;0.60;0.20;;;;;;;;;;5035228;28;20954;-77
2023/05/20 05:15:18;;;;;;;1.77;0.50;;;;;;;;;;5035013;28;20173;-77
2023/05/20 05:17:44;;;;;;;2.63;0.30;;;;;;;;;;5034834;28;20582;-77
2023/05/20 05:20:10;;;;;;;1.67;0.60;;;;;;;;;;5035123;28;20422;-77
2023/05/20 05:22:38;;;;;;;3.43;0.20;;;;;;;;;;5034872;28;20411;-77
2023/05/20 05:25:04;;;;;;;2.63;0.93;;;;;;;;;;5034856;28;20492;-77
2023/05/20 05:27:30;;;;;;;1.13;0.30;;;;;;;;;;5034627;28;20408;-82
2023/05/20 05:29:56;;;;;;;3.03;0.20;;;;;;;;;;5034862;28;20469;-82
2023/05/20 05:32:22;;;;;;;1.07;0.20;;;;;;;;;;5035018;28;20606;-79
2023/05/20 05:34:48;;;;;;;0.70;0.20;;;;;;;;;;5035346;28;20434;-78
2023/05/20 05:37:14;;;;;;;1.47;0.40;;;;;;;;;;5039520;28;20598;-81
2023/05/20 05:39:40;;;;;;;3.90;0.37;;;;;;;;;;5055204;28;20211;-81
2023/05/20 05:42:06;;;;;;;2.57;0.40;;;;;;;;;;5055010;28;20410;-79
2023/05/20 05:44:31;;;;;;;1.50;0.60;;;;;;;;;;5047443;28;20483;-80
2023/05/20 05:46:57;;;;;;;3.80;0.50;;;;;;;;;;5034587;28;20409;-83
2023/05/20 05:49:23;;;;;;;0.80;0.20;;;;;;;;;;5035050;28;20425;-83
2023/05/20 05:51:50;;;;;;;1.17;0.20;;;;;;;;;;5035007;28;20168;-83
2023/05/20 05:54:15;;;;;;;1.23;0.33;;;;;;;;;;5034890;28;20258;-79
2023/05/20 05:56:41;;;;;;;1.33;0.40;;;;;;;;;;5034546;28;20449;-80
2023/05/20 05:59:07;;;;;;;0.80;0.30;;;;;;;;;;5034978;28;20280;-83
2023/05/20 06:01:33;;;;;;;0.67;0.33;;;;;;;;;;5034139;28;20476;-80
2023/05/20 06:04:00;;;;;;;0.83;0.20;;;;;;;;;;5034873;28;20567;-86
2023/05/20 06:06:26;;;;;;;0.80;0.20;;;;;;;;;;5034611;28;20450;-86
2023/05/20 06:08:52;;;;;;;1.63;0.40;;;;;;;;;;5034420;28;20429;-82
2023/05/20 06:11:18;;;;;;;3.50;0.20;;;;;;;;;;5034038;28;20483;-83
2023/05/20 06:13:43;;;;;;;1.20;0.50;;;;;;;;;;5034575;28;20166;-83
2023/05/20 06:16:09;;;;;;;0.90;0.20;;;;;;;;;;5034092;28;20887;-82
2023/05/20 06:18:35;;;;;;;0.70;0.20;;;;;;;;;;5033505;28;20229;-83
2023/05/20 06:21:02;;;;;;;1.03;0.43;;;;;;;;;;5033791;28;20811;-79
2023/05/20 06:23:28;;;;;;;0.93;0.40;;;;;;;;;;5033746;28;20672;-78
2023/05/20 06:25:58;;;;;;;1.53;0.30;;;;;;;;;;5033749;28;20405;-79
2023/05/20 06:28:23;;;;;;;0.97;0.20;;;;;;;;;;5033835;28;20190;-78
2023/05/20 06:30:49;;;;;;;2.33;0.73;;;;;;;;;;5033675;28;20405;-78
2023/05/20 06:33:16;;;;;;;2.03;0.60;;;;;;;;;;5033707;28;21009;-75
2023/05/20 06:35:42;;;;;;;1.10;0.20;;;;;;;;;;5033665;28;20969;-76
2023/05/20 06:38:08;;;;;;;1.97;0.20;;;;;;;;;;5033578;28;20554;-76
2023/05/20 06:40:34;;;;;;;1.40;0.20;;;;;;;;;;5033324;28;20752;-76
2023/05/20 06:43:00;;;;;;;0.93;0.20;;;;;;;;;;5033394;28;20695;-77
2023/05/20 06:45:26;;;;;;;1.77;0.37;;;;;;;;;;5033439;28;20508;-76
2023/05/20 06:47:53;;;;;;;1.37;0.80;;;;;;;;;;5033482;28;20207;-75
2023/05/20 06:50:19;;;;;;;0.90;0.20;;;;;;;;;;5033404;28;20177;-76
2023/05/20 06:52:45;;;;;;;1.67;0.30;;;;;;;;;;5033272;28;20458;-76
2023/05/20 06:55:11;;;;;;;0.83;0.20;;;;;;;;;;5032920;28;20412;-78
2023/05/20 06:57:37;;;;;;;1.57;0.27;;;;;;;;;;5033385;28;20207;-78
2023/05/20 07:00:06;;;;;;;1.67;0.40;;;;;;;;;;5033296;28;20822;-76
2023/05/20 07:02:33;;;;;;;1.40;0.30;;;;;;;;;;5033038;28;20174;-77
2023/05/20 07:04:59;;;;;;;1.10;0.30;;;;;;;;;;5033284;28;20480;-76
2023/05/20 07:07:25;;;;;;;0.70;0.20;;;;;;;;;;5033241;28;20407;-76
2023/05/20 07:09:50;;;;;;;1.23;0.30;;;;;;;;;;5033225;28;20720;-76
2023/05/20 07:12:16;;;;;;;0.90;0.30;;;;;;;;;;5031981;28;20848;-76
2023/05/20 07:14:42;;;;;;;1.40;0.30;;;;;;;;;;5032916;28;20476;-76
2023/05/20 07:17:08;;;;;;;0.57;0.20;;;;;;;;;;5032980;28;20434;-76
2023/05/20 07:19:34;;;;;;;1.80;0.30;;;;;;;;;;5032846;28;20938;-75
2023/05/20 07:22:00;;;;;;;1.17;0.30;;;;;;;;;;5032958;28;20414;-75
2023/05/20 07:24:26;;;;;;;2.17;0.50;;;;;;;;;;5032767;28;20227;-77
2023/05/20 07:26:52;;;;;;;0.60;0.50;;;;;;;;;;5032422;28;20407;-78
2023/05/20 07:29:18;;;;;;;3.27;0.70;;;;;;;;;;5032540;28;20413;-79
2023/05/20 07:31:44;;;;;;;1.33;0.37;;;;;;;;;;5032569;28;20218;-78
2023/05/20 07:34:10;;;;;;;1.60;0.30;;;;;;;;;;5032833;28;20177;-77
2023/05/20 07:36:37;;;;;;;1.00;0.40;;;;;;;;;;5051168;28;20461;-77
2023/05/20 07:39:03;;;;;;;2.70;0.63;;;;;;;;;;5052776;28;20819;-77
2023/05/20 07:41:28;;;;;;;3.60;0.20;;;;;;;;;;5031279;28;20412;-78
2023/05/20 07:43:54;;;;;;;1.53;0.20;;;;;;;;;;5040765;28;20507;-77
2023/05/20 07:46:20;;;;;;;1.93;0.60;;;;;;;;;;5032443;28;20327;-81
2023/05/20 07:48:46;;;;;;;1.27;0.30;;;;;;;;;;5032158;28;20420;-79
2023/05/20 07:51:12;;;;;;;1.87;0.57;;;;;;;;;;5032301;28;20166;-80
2023/05/20 07:53:38;;;;;;;1.97;0.40;;;;;;;;;;5032190;28;20452;-77
2023/05/20 07:56:04;;;;;;;0.90;0.30;;;;;;;;;;5032063;28;20640;-78
2023/05/20 07:58:31;;;;;;;1.00;0.57;;;;;;;;;;5032245;28;20702;-78
2023/05/20 08:00:57;;;;;;;1.70;0.23;;;;;;;;;;5019250;28;20780;-79
2023/05/20 08:03:23;;;;;;;2.80;0.53;;;;;;;;;;5043820;28;20468;-77
2023/05/20 08:05:49;;;;;;;1.67;0.50;;;;;;;;;;5041515;28;20436;-79
2023/05/20 08:08:16;;;;;;;0.93;0.30;;;;;;;;;;5052400;28;20165;-78
2023/05/20 08:10:41;;;;;;;1.17;0.30;;;;;;;;;;5051754;28;20420;-79
2023/05/20 08:13:07;;;;;;;1.03;0.60;;;;;;;;;;5052371;28;20763;-79
2023/05/20 08:15:35;;;;;;;1.10;0.43;;;;;;;;;;5052294;28;20185;-80
2023/05/20 08:18:01;;;;;;;1.77;0.70;;;;;;;;;;5052150;28;20292;-80
2023/05/20 08:20:27;;;;;;;2.30;1.03;;;;;;;;;;5052322;28;20510;-80
2023/05/20 08:22:53;;;;;;;1.90;0.40;;;;;;;;;;5052097;28;20255;-80
2023/05/20 08:25:19;;;;;;;2.10;0.37;;;;;;;;;;5055337;28;20821;-79
2023/05/20 08:27:45;;;;;;;1.23;0.30;;;;;;;;;;5055878;28;20402;-79
2023/05/20 08:30:11;;;;;;;0.80;0.40;;;;;;;;;;5055901;28;20977;-80
2023/05/20 08:32:37;;;;;;;1.23;0.20;;;;;;;;;;5055794;28;20499;-78
2023/05/20 08:35:04;;;;;;;0.70;0.70;;;;;;;;;;5055806;28;20495;-78
2023/05/20 08:37:30;;;;;;;2.70;0.40;;;;;;;;;;5055674;28;20166;-79
2023/05/20 08:39:55;;;;;;;0.97;0.30;;;;;;;;;;5055192;28;20418;-80
2023/05/20 08:42:25;;;;;;;2.40;0.20;;;;;;;;;;5045783;28;20432;-80
2023/05/20 08:44:52;;;;;;;1.67;0.70;;;;;;;;;;5044265;28;20745;-80
2023/05/20 08:47:20;;;;;;;0.90;0.30;;;;;;;;;;5035643;28;20773;-83
2023/05/20 08:49:46;;;;;;;1.70;0.20;;;;;;;;;;5035494;28;20433;-83
2023/05/20 08:52:13;;;;;;;1.20;0.30;;;;;;;;;;5017955;28;20523;-83
2023/05/20 08:54:47;;;;;;;2.43;0.50;;;;;;;;;;5036299;28;20420;-81
2023/05/20 08:57:13;;;;;;;0.97;0.30;;;;;;;;;;5038919;28;20427;-80
2023/05/20 08:59:41;;;;;;;0.80;0.53;;;;;;;;;;5035195;28;20428;-80
2023/05/20 09:02:08;;;;;;;0.73;0.30;;;;;;;;;;5035554;28;20404;-80
2023/05/20 09:04:34;;;;;;;0.60;0.20;;;;;;;;;;5035223;28;21066;-79
2023/05/20 09:07:00;;;;;;;1.30;0.33;;;;;;;;;;5035066;28;20822;-80
2023/05/20 09:09:26;;;;;;;0.97;0.20;;;;;;;;;;5035361;28;20416;-83
2023/05/20 09:11:52;;;;;;;1.50;0.57;;;;;;;;;;5034732;28;20182;-83
2023/05/20 09:14:18;;;;;;;1.07;0.30;;;;;;;;;;5034864;28;20841;-82
2023/05/20 09:16:44;;;;;;;2.97;0.50;;;;;;;;;;5035060;28;20185;-82
2023/05/20 09:19:10;;;;;;;1.03;0.27;;;;;;;;;;5034860;28;20514;-84
2023/05/20 09:21:37;;;;;;;1.40;0.23;;;;;;;;;;5034973;28;20780;-81
2023/05/20 09:24:04;;;;;;;1.03;0.40;;;;;;;;;;5034882;28;20470;-85
2023/05/20 09:26:30;;;;;;;0.57;0.30;;;;;;;;;;5034615;28;20502;-79
2023/05/20 09:28:56;;;;;;;1.27;0.30;;;;;;;;;;5034894;28;20422;-77
2023/05/20 09:31:25;;;;;;;1.20;0.37;;;;;;;;;;5034580;28;20412;-83
2023/05/20 09:33:51;;;;;;;2.50;0.67;;;;;;;;;;5034637;28;21011;-81
2023/05/20 09:36:18;;;;;;;0.80;0.30;;;;;;;;;;5033517;28;20507;-80
2023/05/20 09:38:46;;;;;;;1.43;0.40;;;;;;;;;;5034707;28;20403;-80
2023/05/20 09:41:14;;;;;;;1.07;0.53;;;;;;;;;;5034552;28;20437;-78
2023/05/20 09:43:40;;;;;;;2.07;0.57;;;;;;;;;;5043348;28;20474;-83
2023/05/20 09:46:07;;;;;;;1.00;0.30;;;;;;;;;;5036603;28;20482;-81
2023/05/20 09:48:36;;;;;;;0.50;0.20;;;;;;;;;;5054389;28;20412;-80
2023/05/20 09:51:03;;;;;;;1.87;0.43;;;;;;;;;;5054299;28;20909;-81
2023/05/20 09:53:29;;;;;;;1.83;0.40;;;;;;;;;;5054304;28;20420;-80
2023/05/20 09:55:55;;;;;;;1.90;0.30;;;;;;;;;;5053850;28;20822;-83
2023/05/20 09:58:23;;;;;;;1.10;0.40;;;;;;;;;;5054371;28;20445;-80
2023/05/20 10:00:49;;;;;;;0.90;0.30;;;;;;;;;;5054017;28;20444;-81
2023/05/20 10:03:15;;;;;;;0.97;0.30;;;;;;;;;;5054159;28;20448;-81
2023/05/20 10:05:45;;;;;;;1.27;0.27;;;;;;;;;;5036072;28;20428;-81
2023/05/20 10:08:30;;;;;;;0.60;0.40;;;;;;;;;;5053964;28;20412;-80
2023/05/20 10:11:22;;;;;;;1.10;0.30;;;;;;;;;;5053599;28;20419;-80
2023/05/20 10:14:06;;;;;;;0.60;0.30;;;;;;;;;;5049590;28;20412;-82
2023/05/20 10:16:51;;;;;;;1.20;0.80;;;;;;;;;;5053899;28;20425;-80
2023/05/20 10:19:31;;;;;;;0.97;0.30;;;;;;;;;;5053695;28;20456;-80
2023/05/20 10:22:01;;;;;;;1.30;0.40;;;;;;;;;;5053822;28;20408;-82
2023/05/20 10:24:31;;;;;;;0.83;0.30;;;;;;;;;;5053361;28;20486;-79
2023/05/20 10:26:58;;;;;;;1.43;0.40;;;;;;;;;;5043512;28;20502;-81
2023/05/20 10:29:24;;;;;;;1.00;0.47;;;;;;;;;;5033746;28;20417;-81
2023/05/20 10:31:52;;;;;;;1.03;0.20;;;;;;;;;;5015870;28;20419;-80
2023/05/20 10:34:19;;;;;;;0.60;0.30;;;;;;;;;;5033641;28;20790;-79
2023/05/20 10:36:53;;;;;;;1.53;0.40;;;;;;;;;;5033562;28;20412;-81
2023/05/20 10:39:26;;;;;;;1.47;0.30;;;;;;;;;;5033194;28;20408;-79
2023/05/20 10:41:52;;;;;;;0.97;0.23;;;;;;;;;;5033430;28;20452;-80
2023/05/20 10:44:18;;;;;;;1.90;0.50;;;;;;;;;;5033101;28;20885;-80
2023/05/20 10:46:44;;;;;;;1.20;0.60;;;;;;;;;;5033144;28;20177;-80
2023/05/20 10:49:19;;;;;;;2.00;0.40;;;;;;;;;;5033410;28;20711;-81
2023/05/20 10:51:46;;;;;;;1.13;0.33;;;;;;;;;;5033325;28;20414;-83
2023/05/20 10:54:13;;;;;;;1.40;0.23;;;;;;;;;;5033278;28;20415;-81
2023/05/20 10:56:40;;;;;;;1.40;0.47;;;;;;;;;;5032910;28;20408;-81
2023/05/20 10:59:06;;;;;;;1.00;0.50;;;;;;;;;;5033247;28;20406;-81
2023/05/20 11:01:33;;;;;;;3.63;0.50;;;;;;;;;;5032761;28;20930;-79
2023/05/20 11:04:02;;;;;;;1.70;0.67;;;;;;;;;;5032993;28;20488;-79
2023/05/20 11:06:28;;;;;;;2.10;0.60;;;;;;;;;;5032838;28;20428;-80
2023/05/20 11:08:55;;;;;;;1.60;0.70;;;;;;;;;;5033119;28;20771;-79
2023/05/20 11:11:21;;;;;;;1.80;0.90;;;;;;;;;;5032322;28;20413;-80
2023/05/20 11:13:51;;;;;;;2.37;1.30;;;;;;;;;;5032869;28;20419;-81
2023/05/20 11:16:18;;;;;;;2.67;0.73;;;;;;;;;;5032925;28;20445;-80
2023/05/20 11:18:44;;;;;;;2.27;0.77;;;;;;;;;;5032750;28;20466;-80
2023/05/20 11:21:10;;;;;;;1.60;0.73;;;;;;;;;;5032884;28;20413;-81
2023/05/20 11:23:36;;;;;;;1.73;0.80;;;;;;;;;;5032476;28;20978;-81
2023/05/20 11:26:02;;;;;;;2.43;0.50;;;;;;;;;;5032637;28;20410;-79
2023/05/20 11:28:31;;;;;;;1.13;0.50;;;;;;;;;;5033137;28;20421;-80
2023/05/20 11:30:59;;;;;;;2.53;0.63;;;;;;;;;;5015220;28;20523;-81
2023/05/20 11:33:26;;;;;;;0.83;0.47;;;;;;;;;;5015348;28;20462;-79
2023/05/20 11:35:52;;;;;;;3.60;0.63;;;;;;;;;;5032796;28;20748;-80
2023/05/20 11:38:19;;;;;;;1.00;0.20;;;;;;;;;;5050919;28;20432;-79
2023/05/20 11:40:46;;;;;;;1.00;0.73;;;;;;;;;;5052265;28;20412;-79
2023/05/20 11:43:12;;;;;;;1.20;0.57;;;;;;;;;;5052780;28;20486;-81
2023/05/20 11:45:40;;;;;;;7.43;0.40;;;;;;;;;;5052874;28;20420;-82
2023/05/20 11:48:06;;;;;;;1.03;0.70;;;;;;;;;;5052424;28;20404;-80
2023/05/20 11:50:41;;;;;;;1.23;0.40;;;;;;;;;;5052567;28;20782;-81
2023/05/20 11:53:08;;;;;;;1.13;0.67;;;;;;;;;;5052754;28;20494;-82
2023/05/20 11:55:34;;;;;;;1.77;0.50;;;;;;;;;;5052249;28;20419;-80
2023/05/20 11:58:02;;;;;;;1.70;0.50;;;;;;;;;;5052625;28;20415;-80
2023/05/20 12:00:28;;;;;;;1.57;0.30;;;;;;;;;;5026561;28;20472;-79
2023/05/20 12:02:54;;;;;;;1.23;0.27;;;;;;;;;;5043500;28;20492;-79
2023/05/20 12:05:20;;;;;;;3.67;0.60;;;;;;;;;;5044841;28;20453;-80
2023/05/20 12:07:46;;;;;;;1.90;0.53;;;;;;;;;;5027479;28;20506;-80
2023/05/20 12:10:12;;;;;;;2.37;1.33;;;;;;;;;;5043623;28;20451;-79
2023/05/20 12:12:38;;;;;;;1.80;0.50;;;;;;;;;;5045689;28;20426;-81
2023/05/20 12:15:05;;;;;;;1.07;0.50;;;;;;;;;;5045901;28;20420;-82
2023/05/20 12:17:47;;;;;;;2.07;0.40;;;;;;;;;;5045817;28;20411;-80
2023/05/20 12:20:14;;;;;;;3.70;0.73;;;;;;;;;;5027861;28;20521;-80
2023/05/20 12:22:40;;;;;;;2.03;0.50;;;;;;;;;;5041568;28;20414;-80
2023/05/20 12:25:06;;;;;;;0.97;0.50;;;;;;;;;;5044029;28;20459;-81
2023/05/20 12:27:32;;;;;;;1.57;0.63;;;;;;;;;;5027618;28;20412;-80
2023/05/20 12:29:58;;;;;;;2.73;0.80;;;;;;;;;;5041476;28;20409;-79
2023/05/20 12:32:24;;;;;;;1.20;0.80;;;;;;;;;;5026572;28;20464;-81
2023/05/20 12:34:50;;;;;;;2.10;1.57;;;;;;;;;;5042984;28;20407;-79
2023/05/20 12:37:16;;;;;;;1.23;0.40;;;;;;;;;;5034945;28;20821;-81
2023/05/20 12:39:42;;;;;;;0.90;0.57;;;;;;;;;;5044500;28;20178;-80
2023/05/20 12:42:08;;;;;;;1.03;0.53;;;;;;;;;;5050780;28;20411;-81
2023/05/20 12:44:34;;;;;;;1.20;0.60;;;;;;;;;;5052782;28;20242;-82
2023/05/20 12:47:00;;;;;;;1.20;0.47;;;;;;;;;;5053372;28;20424;-82
2023/05/20 12:49:26;;;;;;;1.03;0.30;;;;;;;;;;5053262;28;20993;-83
2023/05/20 12:51:52;;;;;;;2.27;0.77;;;;;;;;;;5028124;28;20209;-81
2023/05/20 12:54:18;;;;;;;1.27;0.43;;;;;;;;;;5036885;28;20416;-80
2023/05/20 12:56:46;;;;;;;1.63;0.43;;;;;;;;;;5044957;28;20413;-81
2023/05/20 12:59:12;;;;;;;1.90;0.60;;;;;;;;;;5044625;28;20420;-80
2023/05/20 13:01:38;;;;;;;1.03;0.40;;;;;;;;;;5043546;28;20497;-81
2023/05/20 13:04:04;;;;;;;1.20;0.40;;;;;;;;;;5043680;28;20463;-83
2023/05/20 13:06:30;;;;;;;2.97;0.83;;;;;;;;;;5045022;28;20416;-81
2023/05/20 13:08:56;;;;;;;1.20;0.40;;;;;;;;;;5037147;28;20424;-81
2023/05/20 13:11:23;;;;;;;1.70;0.73;;;;;;;;;;5024558;28;20506;-81
2023/05/20 13:13:49;;;;;;;1.03;0.43;;;;;;;;;;5042011;28;20412;-82
2023/05/20 13:16:16;;;;;;;1.03;0.43;;;;;;;;;;5042791;28;20428;-81
2023/05/20 13:18:43;;;;;;;1.20;0.40;;;;;;;;;;5043508;28;20221;-82
2023/05/20 13:21:10;;;;;;;3.67;0.40;;;;;;;;;;5045307;28;20447;-81
2023/05/20 13:23:36;;;;;;;1.93;0.40;;;;;;;;;;5039075;28;20468;-82
2023/05/20 13:26:02;;;;;;;1.03;0.47;;;;;;;;;;5031795;28;20437;-81
2023/05/20 13:28:28;;;;;;;1.90;0.63;;;;;;;;;;5025348;28;20453;-84
2023/05/20 13:30:54;;;;;;;1.07;0.63;;;;;;;;;;5042519;28;20437;-80
2023/05/20 13:33:21;;;;;;;0.83;0.40;;;;;;;;;;5026801;28;20270;-81
2023/05/20 13:35:47;;;;;;;1.20;0.47;;;;;;;;;;5023498;28;20768;-80
2023/05/20 13:38:13;;;;;;;0.90;0.63;;;;;;;;;;5043019;28;20412;-83
2023/05/20 13:40:39;;;;;;;1.00;0.30;;;;;;;;;;5036499;28;20437;-82
2023/05/20 13:43:05;;;;;;;1.97;0.50;;;;;;;;;;5046002;28;20236;-79
2023/05/20 13:45:31;;;;;;;2.20;0.73;;;;;;;;;;5043970;28;20179;-81
2023/05/20 13:47:57;;;;;;;1.73;0.50;;;;;;;;;;5040889;28;20502;-83
2023/05/20 13:50:23;;;;;;;2.77;0.93;;;;;;;;;;5042646;28;20194;-81
2023/05/20 13:52:49;;;;;;;1.27;0.80;;;;;;;;;;5034435;28;20704;-82
2023/05/20 13:55:15;;;;;;;1.63;0.77;;;;;;;;;;5034420;28;20179;-83
2023/05/20 13:57:41;;;;;;;1.27;0.47;;;;;;;;;;5034168;28;20485;-84
2023/05/20 14:00:08;;;;;;;0.80;0.40;;;;;;;;;;5034262;28;20419;-82
2023/05/20 14:02:34;;;;;;;1.20;0.50;;;;;;;;;;5016331;28;20780;-81
2023/05/20 14:05:01;;;;;;;2.40;1.10;;;;;;;;;;5033652;28;20484;-81
2023/05/20 14:07:27;;;;;;;1.97;0.50;;;;;;;;;;5033969;28;20176;-79
2023/05/20 14:09:53;;;;;;;1.00;0.33;;;;;;;;;;5033547;28;20958;-81
2023/05/20 14:12:19;;;;;;;2.50;0.77;;;;;;;;;;5033900;28;20820;-80
2023/05/20 14:14:45;;;;;;;1.77;0.87;;;;;;;;;;5034001;28;20725;-80
2023/05/20 14:17:11;;;;;;;2.50;0.60;;;;;;;;;;5034025;28;20463;-80
2023/05/20 14:19:37;;;;;;;1.90;0.77;;;;;;;;;;5033693;28;20551;-79
2023/05/20 14:22:03;;;;;;;1.73;0.70;;;;;;;;;;5033477;28;20171;-80
2023/05/20 14:24:29;;;;;;;1.20;0.53;;;;;;;;;;5033473;28;20476;-80
2023/05/20 14:26:55;;;;;;;1.60;0.57;;;;;;;;;;5038440;28;20457;-89
2023/05/20 14:29:20;;;;;;;1.50;0.70;;;;;;;;;;5033674;28;20424;-78
2023/05/20 14:31:46;;;;;;;1.03;0.50;;;;;;;;;;5033399;28;20836;-78
2023/05/20 14:34:12;;;;;;;0.97;0.50;;;;;;;;;;5033683;28;20409;-84
2023/05/20 14:36:38;;;;;;;0.73;0.30;;;;;;;;;;5015410;28;20648;-78
2023/05/20 14:39:04;;;;;;;1.30;0.93;;;;;;;;;;5033216;28;20633;-79